Time;durP1;ratioP1;P1;durP2;ratioP2;P2;SDS_P1;SDS_P2;PMS_P1;PMS_P2;Temp;Humidity;BMP_temperature;BMP_pressure;BME280_temperature;BME280_humidity;BME280_pressure;Samples;Min_cycle;Max_cycle;Signal;HPM_P1;HPM_P2
2022/01/03 00:00:10;;;;;;;12.80;5.60;;;;;;;6.49;76.08;98284.31;106078;1274;97875;-69
2022/01/03 00:03:01;;;;;;;14.50;6.00;;;;;;;6.53;76.07;98278.41;106054;1274;97508;-72
2022/01/03 00:05:30;;;;;;;13.40;6.00;;;;;;;6.56;75.95;98279.63;106091;1274;111352;-71
2022/01/03 00:07:58;;;;;;;12.60;5.10;;;;;;;6.59;76.04;98278.90;106111;1274;97682;-71
2022/01/03 00:10:27;;;;;;;15.60;5.70;;;;;;;6.62;75.94;98281.36;106103;1273;107503;-70
2022/01/03 00:12:54;;;;;;;11.80;5.10;;;;;;;6.65;75.98;98282.01;106198;1274;97953;-71
2022/01/03 00:15:23;;;;;;;12.30;5.30;;;;;;;6.68;75.82;98284.40;106136;1274;95263;-70
2022/01/03 00:17:53;;;;;;;15.30;5.70;;;;;;;6.72;75.94;98282.41;106090;1274;111838;-70
2022/01/03 00:20:23;;;;;;;11.80;5.00;;;;;;;6.75;75.85;98276.37;106162;1274;96488;-70
2022/01/03 00:23:01;;;;;;;12.80;5.20;;;;;;;6.78;75.76;98277.05;106192;1274;107794;-72
2022/01/03 00:25:30;;;;;;;13.70;5.80;;;;;;;6.80;75.79;98289.23;106142;1274;97873;-70
2022/01/03 00:28:07;;;;;;;13.10;5.00;;;;;;;6.82;76.06;98280.52;106132;1274;97975;-71
2022/01/03 00:30:40;;;;;;;11.50;4.80;;;;;;;6.84;75.85;98274.17;106091;1274;111399;-71
2022/01/03 00:33:08;;;;;;;12.90;4.80;;;;;;;6.85;76.03;98273.70;106103;1274;95171;-70
2022/01/03 00:35:42;;;;;;;13.80;5.90;;;;;;;6.86;75.86;98274.94;106162;1274;107867;-71
2022/01/03 00:38:12;;;;;;;13.60;5.40;;;;;;;6.86;75.81;98271.02;106118;1274;97889;-70
2022/01/03 00:40:40;;;;;;;12.80;5.50;;;;;;;6.87;75.82;98271.32;105988;1274;95877;-70
2022/01/03 00:43:08;;;;;;;12.90;5.60;;;;;;;6.86;75.77;98276.65;106144;1274;113721;-73
2022/01/03 00:45:36;;;;;;;14.40;5.20;;;;;;;6.86;75.80;98277.20;106141;1274;97901;-71
2022/01/03 00:48:08;;;;;;;12.90;5.40;;;;;;;6.87;75.64;98276.79;106113;1273;107793;-70
2022/01/03 00:50:37;;;;;;;14.40;5.30;;;;;;;6.87;75.81;98275.06;106100;1274;98551;-70
2022/01/03 00:53:05;;;;;;;14.40;5.40;;;;;;;6.87;75.82;98272.41;106196;1274;98063;-71
2022/01/03 00:55:33;;;;;;;9.40;4.60;;;;;;;6.88;75.64;98274.77;106218;1274;110605;-70
2022/01/03 00:58:13;;;;;;;12.80;5.30;;;;;;;6.89;75.60;98266.61;106178;1274;97876;-68
2022/01/03 01:00:42;;;;;;;12.40;5.40;;;;;;;6.88;75.71;98252.73;106193;1274;107713;-70
2022/01/03 01:03:19;;;;;;;10.90;5.30;;;;;;;6.89;75.54;98249.00;106144;1274;97943;-70
2022/01/03 01:05:50;;;;;;;11.90;5.40;;;;;;;6.89;75.39;98250.42;106086;1274;96219;-70
2022/01/03 01:08:21;;;;;;;14.20;5.40;;;;;;;6.86;75.26;98250.05;106127;1274;111314;-70
2022/01/03 01:10:51;;;;;;;13.10;5.40;;;;;;;6.85;75.56;98254.34;106109;1274;98477;-70
2022/01/03 01:13:21;;;;;;;13.60;5.50;;;;;;;6.85;75.67;98263.16;106180;1273;106746;-70
2022/01/03 01:15:49;;;;;;;12.90;5.00;;;;;;;6.86;75.38;98258.88;106095;1274;97958;-71
2022/01/03 01:18:18;;;;;;;12.90;5.10;;;;;;;6.87;75.31;98255.63;106055;1274;98595;-72
2022/01/03 01:20:46;;;;;;;10.90;4.90;;;;;;;6.89;75.47;98255.01;106167;1274;111166;-70
2022/01/03 01:23:14;;;;;;;14.30;5.60;;;;;;;6.89;75.36;98259.02;106119;1273;96556;-70
2022/01/03 01:28:14;;;;;;;11.70;5.00;;;;;;;6.90;75.29;98261.06;106194;1274;97957;-72
2022/01/03 01:30:43;;;;;;;14.40;5.70;;;;;;;6.90;75.33;98260.73;106230;1274;97854;-73
2022/01/03 01:33:14;;;;;;;14.60;5.50;;;;;;;6.88;75.21;98250.80;106210;1274;109184;-74
2022/01/03 01:35:53;;;;;;;13.70;5.90;;;;;;;6.89;75.22;98254.48;106115;1274;97911;-71
2022/01/03 01:38:28;;;;;;;13.50;5.20;;;;;;;6.89;75.30;98250.77;106068;1274;107736;-71
2022/01/03 01:40:59;;;;;;;13.40;5.80;;;;;;;6.90;75.38;98239.25;106171;1274;97889;-71
2022/01/03 01:43:42;;;;;;;11.50;4.70;;;;;;;6.90;75.33;98228.13;106143;1274;96251;-71
2022/01/03 01:46:14;;;;;;;12.90;5.50;;;;;;;6.91;75.48;98220.64;106187;1274;111256;-70
2022/01/03 01:48:45;;;;;;;12.00;5.80;;;;;;;6.91;75.21;98212.69;106217;1274;97947;-72
2022/01/03 01:51:16;;;;;;;15.00;5.90;;;;;;;6.92;75.30;98210.52;106102;1274;107736;-71
2022/01/03 01:53:48;;;;;;;14.80;5.80;;;;;;;6.93;75.12;98219.77;106204;1274;97851;-69
2022/01/03 01:56:23;;;;;;;13.30;5.40;;;;;;;6.93;75.30;98216.27;106242;1274;97894;-69
2022/01/03 01:58:58;;;;;;;12.50;5.00;;;;;;;6.93;75.13;98214.90;106207;1274;111320;-69
2022/01/03 02:01:41;;;;;;;13.70;5.30;;;;;;;6.92;75.03;98200.10;106131;1274;97943;-70
2022/01/03 02:04:28;;;;;;;14.40;5.60;;;;;;;6.93;75.22;98198.80;106077;1274;108523;-70
2022/01/03 02:07:21;;;;;;;12.20;5.10;;;;;;;6.92;75.12;98199.80;106034;1274;97976;-70
2022/01/03 02:10:04;;;;;;;16.60;5.50;;;;;;;6.92;75.19;98200.82;106123;1274;98563;-69
2022/01/03 02:12:39;;;;;;;11.90;5.50;;;;;;;6.94;75.29;98211.27;106184;1274;111442;-70
2022/01/03 02:15:14;;;;;;;11.20;4.80;;;;;;;6.94;75.00;98206.48;106219;1274;97866;-70
2022/01/03 02:17:46;;;;;;;13.60;5.50;;;;;;;6.95;75.26;98194.60;106194;1274;107632;-70
2022/01/03 02:20:21;;;;;;;15.50;5.40;;;;;;;6.97;74.96;98188.10;106158;1274;95369;-70
2022/01/03 02:22:50;;;;;;;14.00;5.20;;;;;;;6.98;74.94;98193.88;106145;1274;97956;-70
2022/01/03 02:25:21;;;;;;;13.60;5.80;;;;;;;6.98;74.99;98186.98;106169;1274;111502;-69
2022/01/03 02:27:50;;;;;;;13.10;5.70;;;;;;;6.99;75.21;98186.22;106052;1274;98029;-70
2022/01/03 02:30:22;;;;;;;12.20;5.30;;;;;;;7.00;75.24;98186.69;105900;1274;108794;-69
2022/01/03 02:32:51;;;;;;;14.30;5.60;;;;;;;7.03;74.97;98189.31;106026;1274;98432;-69
2022/01/03 02:35:20;;;;;;;14.60;6.00;;;;;;;7.04;75.06;98191.69;106076;1274;97876;-70
2022/01/03 02:37:50;;;;;;;12.50;5.70;;;;;;;7.06;75.14;98185.92;106103;1274;111637;-70
2022/01/03 02:40:19;;;;;;;13.90;5.50;;;;;;;7.07;74.85;98179.14;106125;1274;97832;-69
2022/01/03 02:42:49;;;;;;;12.80;5.20;;;;;;;7.06;74.87;98176.02;106036;1274;108756;-71
2022/01/03 02:45:24;;;;;;;11.90;4.90;;;;;;;7.06;75.01;98167.55;106103;1274;97947;-71
2022/01/03 02:47:56;;;;;;;11.20;5.20;;;;;;;7.05;74.95;98169.55;106065;1274;97926;-70
2022/01/03 02:50:28;;;;;;;14.80;5.70;;;;;;;7.06;75.14;98168.66;106054;1274;112918;-70
2022/01/03 02:52:57;;;;;;;11.60;5.00;;;;;;;7.06;74.94;98167.58;106084;1274;97940;-70
2022/01/03 02:55:27;;;;;;;12.20;5.20;;;;;;;7.07;75.11;98170.48;106056;1274;107560;-71
2022/01/03 02:58:05;;;;;;;15.00;5.70;;;;;;;7.08;75.01;98169.90;106037;1274;96020;-70
2022/01/03 03:00:50;;;;;;;14.40;5.40;;;;;;;7.08;74.86;98157.55;106074;1274;95240;-69
2022/01/03 03:03:21;;;;;;;13.10;5.60;;;;;;;7.08;74.97;98148.70;106055;1274;111416;-71
2022/01/03 03:05:50;;;;;;;13.60;5.10;;;;;;;7.08;74.90;98147.54;106110;1274;97966;-70
2022/01/03 03:08:19;;;;;;;13.90;5.80;;;;;;;7.08;74.94;98147.16;106067;1274;107788;-71
2022/01/03 03:10:48;;;;;;;12.60;5.50;;;;;;;7.09;75.08;98143.52;106142;1273;97765;-71
2022/01/03 03:13:16;;;;;;;13.50;5.40;;;;;;;7.11;75.16;98144.13;106194;1274;97856;-70
2022/01/03 03:15:44;;;;;;;10.90;5.00;;;;;;;7.11;75.12;98137.78;106228;1274;111281;-69
2022/01/03 03:18:13;;;;;;;14.70;5.10;;;;;;;7.11;74.91;98135.06;106169;1274;97754;-69
2022/01/03 03:20:43;;;;;;;12.10;5.00;;;;;;;7.13;74.87;98138.00;106084;1274;108429;-70
2022/01/03 03:23:13;;;;;;;14.30;6.00;;;;;;;7.14;74.93;98135.23;106018;1274;95878;-71
2022/01/03 03:25:41;;;;;;;14.60;5.70;;;;;;;7.14;74.90;98128.17;106025;1274;96298;-69
2022/01/03 03:28:13;;;;;;;13.80;6.00;;;;;;;7.13;74.84;98132.11;106063;1274;111376;-70
2022/01/03 03:30:46;;;;;;;14.70;5.50;;;;;;;7.14;74.79;98126.05;105991;1274;137039;-69
2022/01/03 03:33:16;;;;;;;;;;;;;;;7.15;74.86;98127.21;106091;1274;107731;-69
2022/01/03 03:35:46;;;;;;;13.20;5.00;;;;;;;7.13;74.88;98117.63;106188;1274;98038;-70
2022/01/03 03:38:14;;;;;;;11.90;5.40;;;;;;;7.14;74.99;98111.27;106190;1274;97950;-69
2022/01/03 03:40:45;;;;;;;11.60;5.00;;;;;;;7.14;74.86;98107.88;106214;1274;111362;-69
2022/01/03 03:43:14;;;;;;;10.90;5.00;;;;;;;7.16;74.85;98115.72;106093;1274;95169;-71
2022/01/03 03:45:42;;;;;;;12.40;5.10;;;;;;;7.17;74.69;98117.10;105985;1274;107782;-69
2022/01/03 03:48:12;;;;;;;13.10;5.20;;;;;;;7.17;74.62;98120.38;106129;1274;99148;-70
2022/01/03 03:50:41;;;;;;;11.90;4.70;;;;;;;7.19;74.61;98116.58;106258;1274;97928;-70
2022/01/03 03:53:09;;;;;;;11.20;4.70;;;;;;;7.20;74.62;98118.92;106104;1274;111741;-70
2022/01/03 03:55:37;;;;;;;12.70;5.30;;;;;;;7.21;74.75;98114.83;106133;1274;97972;-68
2022/01/03 03:58:06;;;;;;;11.10;4.70;;;;;;;7.21;74.69;98118.66;106062;1274;107692;-69
2022/01/03 04:00:34;;;;;;;13.10;5.70;;;;;;;7.22;74.71;98120.23;106190;1274;97948;-72
2022/01/03 04:03:02;;;;;;;12.40;5.10;;;;;;;7.23;74.61;98119.29;106255;1274;97963;-70
2022/01/03 04:05:31;;;;;;;11.70;5.10;;;;;;;7.24;74.66;98121.51;106237;1274;111482;-70
2022/01/03 04:08:00;;;;;;;12.70;5.10;;;;;;;7.25;74.78;98121.59;106217;1274;97942;-69
2022/01/03 04:10:28;;;;;;;13.70;5.20;;;;;;;7.27;74.61;98114.23;106113;1274;107655;-70
2022/01/03 04:12:55;;;;;;;14.00;4.90;;;;;;;7.27;74.54;98106.98;106188;1274;97988;-70
2022/01/03 04:15:25;;;;;;;12.30;4.80;;;;;;;7.28;74.67;98101.93;106114;1274;95313;-70
2022/01/03 04:17:53;;;;;;;11.80;4.70;;;;;;;7.31;74.71;98101.75;106101;1274;111416;-69
2022/01/03 04:20:21;;;;;;;10.30;5.00;;;;;;;7.33;74.66;98098.04;106071;1274;95226;-69
2022/01/03 04:22:49;;;;;;;12.70;5.40;;;;;;;7.35;74.54;98101.95;106047;1274;107697;-71
2022/01/03 04:25:17;;;;;;;12.30;4.80;;;;;;;7.36;74.67;98098.70;106064;1273;96582;-70
2022/01/03 04:27:45;;;;;;;11.30;4.40;;;;;;;7.37;74.53;98097.92;106078;1273;97856;-69
2022/01/03 04:30:12;;;;;;;13.70;5.20;;;;;;;7.39;74.59;98102.36;106044;1274;111272;-69
2022/01/03 04:32:40;;;;;;;14.50;5.30;;;;;;;7.40;74.66;98103.00;106099;1274;97871;-67
2022/01/03 04:35:09;;;;;;;14.10;5.70;;;;;;;7.41;74.59;98101.83;106017;1274;108150;-69
2022/01/03 04:37:37;;;;;;;12.80;4.90;;;;;;;7.41;74.49;98099.55;106051;1274;95303;-70
2022/01/03 04:40:06;;;;;;;14.50;5.00;;;;;;;7.41;74.50;98099.71;106264;1274;97883;-70
2022/01/03 04:42:34;;;;;;;12.30;4.90;;;;;;;7.41;74.32;98102.23;106149;1274;110974;-69
2022/01/03 04:45:04;;;;;;;11.90;5.00;;;;;;;7.39;74.62;98099.75;106088;1274;97864;-70
2022/01/03 04:47:32;;;;;;;11.30;4.80;;;;;;;7.36;74.39;98098.70;106106;1274;107762;-70
2022/01/03 04:49:59;;;;;;;15.10;5.20;;;;;;;7.36;74.37;98097.66;106073;1274;95284;-69
2022/01/03 04:52:27;;;;;;;13.00;5.30;;;;;;;7.34;74.56;98092.32;106077;1274;97969;-70
2022/01/03 04:54:56;;;;;;;13.10;5.50;;;;;;;7.34;74.33;98084.60;106070;1274;111467;-70
2022/01/03 04:57:24;;;;;;;14.90;6.10;;;;;;;7.33;74.50;98085.04;106065;1273;98005;-70
2022/01/03 04:59:51;;;;;;;13.00;5.20;;;;;;;7.33;74.47;98082.23;106098;1274;107820;-70
2022/01/03 05:02:19;;;;;;;17.80;6.10;;;;;;;7.34;74.38;98081.80;106046;1274;97918;-71
2022/01/03 05:04:48;;;;;;;18.00;5.70;;;;;;;7.34;74.29;98079.87;106069;1274;97860;-70
2022/01/03 05:07:16;;;;;;;15.60;6.40;;;;;;;7.33;74.50;98084.82;106077;1274;111518;-71
2022/01/03 05:09:44;;;;;;;11.20;4.90;;;;;;;7.35;74.55;98092.09;106075;1274;97988;-71
2022/01/03 05:12:12;;;;;;;11.60;5.00;;;;;;;7.36;74.35;98091.28;106038;1272;107679;-72
2022/01/03 05:14:40;;;;;;;10.70;4.40;;;;;;;7.36;74.45;98091.98;106137;1274;98021;-68
2022/01/03 05:17:10;;;;;;;14.80;5.70;;;;;;;7.37;74.51;98084.88;106073;1274;97806;-70
2022/01/03 05:19:38;;;;;;;18.30;6.80;;;;;;;7.39;74.36;98083.88;106170;1274;111176;-69
2022/01/03 05:22:07;;;;;;;20.50;7.00;;;;;;;7.40;74.35;98084.15;106207;1274;95306;-69
2022/01/03 05:24:35;;;;;;;17.60;6.70;;;;;;;7.41;74.49;98084.05;106028;1274;107777;-69
2022/01/03 05:27:06;;;;;;;13.20;5.70;;;;;;;7.43;74.32;98078.11;106072;1274;96420;-70
2022/01/03 05:29:36;;;;;;;15.20;5.80;;;;;;;7.43;74.55;98081.45;106111;1274;97859;-71
2022/01/03 05:32:04;;;;;;;14.60;5.30;;;;;;;7.44;74.36;98080.09;106088;1274;110945;-72
2022/01/03 05:34:32;;;;;;;13.60;4.80;;;;;;;7.44;74.43;98078.70;106102;1274;95861;-71
2022/01/03 05:37:03;;;;;;;14.90;6.10;;;;;;;7.45;74.41;98078.67;106088;1274;107738;-69
2022/01/03 05:39:31;;;;;;;13.40;4.90;;;;;;;7.45;74.38;98079.35;106136;1274;95291;-70
2022/01/03 05:42:03;;;;;;;14.20;5.00;;;;;;;7.47;74.29;98076.95;106107;1274;97765;-70
2022/01/03 05:44:31;;;;;;;14.10;5.00;;;;;;;7.47;74.44;98076.23;106117;1274;109761;-70
2022/01/03 05:47:00;;;;;;;14.70;4.90;;;;;;;7.48;74.22;98071.58;106162;1274;95672;-70
2022/01/03 05:49:27;;;;;;;14.20;5.80;;;;;;;7.48;74.45;98066.63;106173;1274;107500;-70
2022/01/03 05:51:55;;;;;;;15.10;4.80;;;;;;;7.48;74.32;98057.06;106141;1274;98053;-71
2022/01/03 05:54:23;;;;;;;12.50;4.60;;;;;;;7.48;74.19;98053.23;106127;1274;97957;-72
2022/01/03 05:56:51;;;;;;;11.50;4.90;;;;;;;7.46;74.04;98054.23;106113;1274;110025;-73
2022/01/03 05:59:19;;;;;;;11.30;5.10;;;;;;;7.45;74.28;98047.45;106120;1274;97017;-70
2022/01/03 06:01:47;;;;;;;12.00;5.00;;;;;;;7.43;74.05;98042.78;106076;1274;107852;-71
2022/01/03 06:04:25;;;;;;;10.70;4.70;;;;;;;7.41;74.03;98040.84;106147;1274;97923;-72
2022/01/03 06:07:01;;;;;;;14.20;5.00;;;;;;;7.39;74.05;98035.32;106229;1274;97879;-72
2022/01/03 06:09:29;;;;;;;12.60;4.90;;;;;;;7.40;74.06;98033.70;106231;1274;111495;-72
2022/01/03 06:11:59;;;;;;;14.70;5.50;;;;;;;7.42;74.33;98039.20;106208;1273;97833;-73
2022/01/03 06:14:27;;;;;;;14.40;5.60;;;;;;;7.43;74.13;98039.11;106172;1274;108785;-72
2022/01/03 06:16:58;;;;;;;15.30;5.80;;;;;;;7.44;74.17;98036.16;106239;1274;97966;-73
2022/01/03 06:19:29;;;;;;;20.50;6.60;;;;;;;7.46;74.13;98036.92;106301;1274;98569;-73
2022/01/03 06:21:59;;;;;;;22.50;8.20;;;;;;;7.49;74.01;98031.81;106160;1274;111496;-72
2022/01/03 06:24:26;;;;;;;20.30;7.10;;;;;;;7.50;74.13;98029.95;106202;1273;97953;-72
2022/01/03 06:26:59;;;;;;;22.00;7.00;;;;;;;7.52;74.05;98028.02;106177;1274;107763;-72
2022/01/03 06:29:27;;;;;;;21.00;7.00;;;;;;;7.53;74.02;98031.61;106243;1274;95998;-71
2022/01/03 06:31:58;;;;;;;16.70;6.30;;;;;;;7.54;74.12;98030.83;106254;1274;97849;-73
2022/01/03 06:34:26;;;;;;;18.00;6.10;;;;;;;7.56;73.99;98033.03;106220;1274;111153;-72
2022/01/03 06:36:56;;;;;;;15.30;5.60;;;;;;;7.57;74.10;98031.88;106208;1274;97618;-72
2022/01/03 06:39:24;;;;;;;14.70;5.80;;;;;;;7.57;73.93;98031.15;106223;1275;107698;-71
2022/01/03 06:41:52;;;;;;;16.30;6.30;;;;;;;7.58;74.06;98032.65;106133;1274;97899;-72
2022/01/03 06:44:20;;;;;;;16.70;6.40;;;;;;;7.59;74.14;98036.79;106101;1274;97974;-72
2022/01/03 06:46:48;;;;;;;15.60;5.30;;;;;;;7.59;74.03;98034.84;106078;1273;111511;-73
2022/01/03 06:49:17;;;;;;;15.20;6.00;;;;;;;7.60;73.88;98034.13;106158;1274;97860;-73
2022/01/03 06:51:44;;;;;;;17.80;6.20;;;;;;;7.59;73.99;98031.16;106198;1274;107711;-72
2022/01/03 06:54:12;;;;;;;19.60;6.70;;;;;;;7.59;73.94;98034.31;106161;1273;97892;-71
2022/01/03 06:56:41;;;;;;;17.40;5.70;;;;;;;7.60;74.17;98038.49;106223;1274;97821;-71
2022/01/03 06:59:11;;;;;;;15.30;5.90;;;;;;;7.59;74.06;98036.62;106141;1274;111343;-71
2022/01/03 07:01:39;;;;;;;14.30;5.40;;;;;;;7.58;73.94;98031.98;106148;1274;97991;-72
2022/01/03 07:04:08;;;;;;;15.10;6.00;;;;;;;7.57;74.04;98032.05;106153;1273;107719;-72
2022/01/03 07:06:36;;;;;;;16.60;5.90;;;;;;;7.56;74.02;98030.50;106149;1274;95357;-74
2022/01/03 07:09:08;;;;;;;14.20;5.70;;;;;;;7.55;73.84;98031.33;106233;1274;97922;-75
2022/01/03 07:11:37;;;;;;;17.00;6.80;;;;;;;7.54;73.72;98031.77;106131;1273;111440;-73
2022/01/03 07:19:43;;;;;;;12.30;5.10;;;;;;;7.54;73.80;98032.98;106161;1274;97854;-72
2022/01/03 07:22:12;;;;;;;13.00;5.60;;;;;;;7.53;73.84;98030.02;106174;1274;95950;-71
2022/01/03 07:24:42;;;;;;;15.60;5.60;;;;;;;7.53;73.93;98030.95;106043;1274;110107;-72
2022/01/03 07:27:12;;;;;;;14.40;5.80;;;;;;;7.53;73.59;98027.41;106133;1274;97704;-72
2022/01/03 07:29:43;;;;;;;14.40;5.40;;;;;;;7.53;73.73;98027.79;106133;1274;107656;-73
2022/01/03 07:32:11;;;;;;;16.40;5.90;;;;;;;7.52;73.48;98030.88;106079;1274;97804;-71
2022/01/03 07:34:41;;;;;;;16.60;6.10;;;;;;;7.52;73.70;98033.66;106053;1274;97985;-71
2022/01/03 07:37:08;;;;;;;16.80;5.80;;;;;;;7.54;73.82;98032.69;106035;1274;111409;-74
2022/01/03 07:39:38;;;;;;;16.00;5.80;;;;;;;7.55;73.57;98033.30;105939;1274;98004;-72
2022/01/03 07:42:06;;;;;;;17.20;6.80;;;;;;;7.55;73.66;98032.52;106021;1274;107743;-74
2022/01/03 07:44:35;;;;;;;13.20;5.50;;;;;;;7.57;73.59;98034.17;106078;1274;97844;-72
2022/01/03 07:47:06;;;;;;;19.00;6.50;;;;;;;7.58;73.77;98034.75;106268;1274;97974;-71
2022/01/03 07:49:34;;;;;;;14.70;5.70;;;;;;;7.60;73.59;98038.66;105826;1274;111706;-72
2022/01/03 07:52:02;;;;;;;14.80;5.70;;;;;;;7.63;73.55;98036.22;106146;1274;97938;-72
2022/01/03 07:54:30;;;;;;;15.00;5.20;;;;;;;7.64;73.39;98038.03;106107;1274;107720;-72
2022/01/03 07:57:00;;;;;;;15.60;5.10;;;;;;;7.65;73.59;98044.64;106103;1274;97950;-72
2022/01/03 07:59:28;;;;;;;15.10;5.20;;;;;;;7.65;73.57;98046.95;106213;1274;97829;-71
2022/01/03 08:01:56;;;;;;;15.30;5.80;;;;;;;7.65;73.41;98058.93;106169;1273;111266;-71
2022/01/03 08:04:30;;;;;;;14.00;5.30;;;;;;;7.63;73.27;98059.88;106171;1274;98286;-72
2022/01/03 08:06:59;;;;;;;13.20;5.60;;;;;;;7.61;73.15;98063.11;106187;1274;107838;-74
2022/01/03 08:09:26;;;;;;;17.90;6.30;;;;;;;7.59;73.24;98051.83;106056;1274;98442;-72
2022/01/03 08:11:54;;;;;;;15.90;5.80;;;;;;;7.57;73.29;98048.12;106148;1274;97937;-72
2022/01/03 08:14:22;;;;;;;16.00;6.30;;;;;;;7.55;73.41;98039.28;106087;1274;111418;-72
2022/01/03 08:16:50;;;;;;;16.70;6.30;;;;;;;7.53;73.46;98033.92;106203;1274;97876;-73
2022/01/03 08:19:20;;;;;;;17.40;6.20;;;;;;;7.53;73.21;98033.08;106136;1274;107746;-73
2022/01/03 08:21:48;;;;;;;19.20;7.10;;;;;;;7.54;73.38;98031.71;106055;1274;97960;-72
2022/01/03 08:24:18;;;;;;;18.20;7.00;;;;;;;7.56;73.45;98033.88;106160;1274;95812;-71
2022/01/03 08:26:46;;;;;;;21.00;7.30;;;;;;;7.56;73.37;98026.13;106144;1273;112403;-71
2022/01/03 08:29:13;;;;;;;20.70;8.00;;;;;;;7.55;73.32;98024.92;106099;1274;97997;-75
2022/01/03 08:31:41;;;;;;;15.80;6.60;;;;;;;7.57;73.50;98021.48;106115;1274;107698;-72
2022/01/03 08:34:09;;;;;;;21.20;8.10;;;;;;;7.60;73.43;98024.94;106152;1274;97873;-73
2022/01/03 08:36:37;;;;;;;21.00;8.80;;;;;;;7.66;73.50;98022.75;106109;1274;97870;-73
2022/01/03 08:39:09;;;;;;;20.80;8.00;;;;;;;7.70;73.51;98021.90;106127;1274;110449;-71
2022/01/03 08:41:37;;;;;;;24.70;9.40;;;;;;;7.71;73.55;98023.22;106219;1274;97873;-71
2022/01/03 08:44:08;;;;;;;25.50;11.20;;;;;;;7.70;73.53;98022.95;106080;1274;107767;-71
2022/01/03 08:46:36;;;;;;;28.20;11.90;;;;;;;7.70;73.45;98030.02;106064;1274;95341;-71
2022/01/03 08:49:06;;;;;;;24.00;9.90;;;;;;;7.70;73.65;98036.58;106201;1274;97893;-71
2022/01/03 08:51:37;;;;;;;22.70;8.30;;;;;;;7.70;73.57;98035.31;106189;1274;111309;-73
2022/01/03 08:54:05;;;;;;;21.70;8.20;;;;;;;7.70;73.58;98035.09;106127;1274;97940;-71
2022/01/03 08:56:33;;;;;;;17.00;6.40;;;;;;;7.72;73.72;98035.66;106176;1274;107694;-71
2022/01/03 08:59:02;;;;;;;14.60;5.60;;;;;;;7.76;73.65;98037.35;106185;1273;95271;-73
2022/01/03 09:01:32;;;;;;;14.90;5.10;;;;;;;7.83;73.73;98034.98;106064;1274;97831;-71
2022/01/03 09:04:00;;;;;;;14.10;5.40;;;;;;;7.93;73.93;98035.27;106078;1274;111386;-72
2022/01/03 09:06:28;;;;;;;15.50;5.30;;;;;;;8.05;73.98;98034.34;106119;1274;98648;-72
2022/01/03 09:08:56;;;;;;;13.70;5.00;;;;;;;8.16;73.99;98038.04;106071;1274;107111;-71
2022/01/03 09:11:29;;;;;;;11.00;4.40;;;;;;;8.26;74.00;98038.36;106069;1274;98422;-71
2022/01/03 09:13:57;;;;;;;12.30;4.20;;;;;;;8.33;74.10;98026.27;106129;1273;95208;-71
2022/01/03 09:16:29;;;;;;;14.80;4.60;;;;;;;8.40;74.10;98020.85;106087;1272;111442;-72
2022/01/03 09:18:57;;;;;;;13.80;5.10;;;;;;;8.46;74.21;98023.02;106197;1274;97882;-72
2022/01/03 09:21:25;;;;;;;15.00;4.70;;;;;;;8.52;74.19;98028.57;106225;1274;107703;-71
2022/01/03 09:24:19;;;;;;;13.00;4.80;;;;;;;8.57;74.23;98027.30;105979;1274;95643;-72
2022/01/03 09:29:36;;;;;;;14.30;4.40;;;;;;;8.63;74.21;98027.80;105990;1274;111367;-71
2022/01/03 09:32:04;;;;;;;11.60;3.80;;;;;;;8.68;74.15;98030.98;106040;1273;98605;-71
2022/01/03 09:34:32;;;;;;;9.70;3.50;;;;;;;8.72;74.25;98028.52;106063;1274;105918;-69
2022/01/03 09:37:02;;;;;;;11.10;3.70;;;;;;;8.78;74.23;98026.96;106083;1274;97916;-71
2022/01/03 09:39:30;;;;;;;9.60;3.20;;;;;;;8.83;74.21;98020.59;106157;1271;97798;-70
2022/01/03 09:42:04;;;;;;;7.90;3.10;;;;;;;8.88;74.30;98018.02;105949;1274;111473;-71
2022/01/03 09:44:35;;;;;;;6.90;3.30;;;;;;;8.94;74.22;98008.58;106062;1274;97958;-72
2022/01/03 09:47:05;;;;;;;12.30;4.10;;;;;;;9.01;74.23;98003.04;106069;1274;106860;-72
2022/01/03 09:49:35;;;;;;;8.40;3.10;;;;;;;9.12;74.12;98007.59;106272;1274;98069;-71
2022/01/03 09:52:07;;;;;;;9.70;3.40;;;;;;;9.25;74.15;98006.86;106167;1274;97867;-72
2022/01/03 09:54:38;;;;;;;7.90;3.00;;;;;;;9.37;73.90;98005.64;106081;1274;111426;-71
2022/01/03 09:57:06;;;;;;;9.20;3.30;;;;;;;9.45;73.88;97998.77;106027;1274;95889;-72
2022/01/03 09:59:36;;;;;;;11.90;3.30;;;;;;;9.51;74.03;98003.59;106036;1274;107712;-70
2022/01/03 10:02:05;;;;;;;9.60;3.30;;;;;;;9.58;73.90;98005.30;106108;1274;97948;-72
2022/01/03 10:04:36;;;;;;;10.40;3.70;;;;;;;9.64;73.80;98003.37;106231;1274;96974;-72
2022/01/03 10:07:09;;;;;;;9.90;3.50;;;;;;;9.69;73.69;97998.73;106107;1274;111483;-73
2022/01/03 10:09:38;;;;;;;;;;;;;;;9.73;73.61;98004.80;106292;1273;97934;-71
2022/01/03 10:12:11;;;;;;;12.50;4.30;;;;;;;9.73;73.79;97990.41;106229;1273;107753;-72
2022/01/03 10:14:40;;;;;;;11.70;3.60;;;;;;;9.76;73.63;97991.42;106202;1274;97959;-71
2022/01/03 10:17:10;;;;;;;10.20;3.30;;;;;;;9.76;73.20;97997.40;106260;1274;97863;-71
2022/01/03 10:19:53;;;;;;;11.10;3.30;;;;;;;9.77;73.35;97993.25;106279;1273;110709;-71
2022/01/03 10:22:25;;;;;;;9.60;3.40;;;;;;;9.78;73.46;97988.19;106185;1274;95909;-72
2022/01/03 10:24:55;;;;;;;9.40;3.30;;;;;;;9.76;72.77;97993.50;106207;1274;107609;-73
2022/01/03 10:27:43;;;;;;;9.70;3.20;;;;;;;9.75;72.76;97989.15;106215;1274;97898;-70
2022/01/03 10:30:11;;;;;;;9.10;3.10;;;;;;;9.79;73.31;97988.67;106202;1274;95922;-71
2022/01/03 10:32:40;;;;;;;9.10;3.40;;;;;;;9.83;73.25;97983.51;106203;1274;111403;-71
2022/01/03 10:35:17;;;;;;;10.70;3.20;;;;;;;9.90;72.81;97987.31;106181;1274;96418;-72
2022/01/03 10:37:45;;;;;;;8.50;3.00;;;;;;;9.95;73.07;97984.76;106176;1274;107703;-72
2022/01/03 10:40:28;;;;;;;10.40;3.50;;;;;;;10.02;72.81;97979.80;106190;1274;96268;-73
2022/01/03 10:42:58;;;;;;;13.50;3.50;;;;;;;10.13;72.17;97977.77;106224;1274;98428;-72
2022/01/03 10:45:32;;;;;;;8.10;3.70;;;;;;;10.26;72.89;97979.44;106179;1274;111177;-72
2022/01/03 10:48:02;;;;;;;9.80;3.20;;;;;;;10.40;71.91;97974.88;106190;1274;97882;-73
2022/01/03 10:50:30;;;;;;;8.30;2.80;;;;;;;10.56;72.08;97974.83;106180;1273;107901;-73
2022/01/03 10:53:03;;;;;;;8.40;3.10;;;;;;;10.70;71.44;97967.98;106178;1274;97996;-72
2022/01/03 10:55:34;;;;;;;8.20;3.30;;;;;;;10.79;71.45;97968.67;106209;1273;95755;-74
2022/01/03 10:58:06;;;;;;;6.70;2.90;;;;;;;10.92;71.31;97961.39;106196;1274;111368;-72
2022/01/03 11:00:41;;;;;;;9.40;3.20;;;;;;;11.00;70.82;97960.96;106199;1274;95397;-71
2022/01/03 11:06:01;;;;;;;8.10;3.30;;;;;;;11.12;71.14;97963.71;106170;1274;97940;-72
2022/01/03 11:11:34;;;;;;;8.70;2.80;;;;;;;10.93;70.51;97948.09;106181;1274;112978;-73
2022/01/03 11:14:03;;;;;;;10.70;3.10;;;;;;;10.85;70.49;97954.67;106239;1274;98527;-72
2022/01/03 11:16:36;;;;;;;7.70;2.60;;;;;;;10.75;70.36;97956.49;106236;1274;107733;-73
2022/01/03 11:19:04;;;;;;;7.30;2.60;;;;;;;10.68;70.71;97953.89;106148;1274;97988;-72
2022/01/03 11:21:33;;;;;;;8.00;2.90;;;;;;;10.66;70.44;97953.60;106199;1274;97957;-74
2022/01/03 11:24:11;;;;;;;12.30;3.30;;;;;;;10.69;70.79;97945.84;106187;1274;112648;-73
2022/01/03 11:26:48;;;;;;;11.30;3.30;;;;;;;10.74;69.61;97946.48;106221;1274;97901;-72
2022/01/03 11:29:18;;;;;;;9.60;3.00;;;;;;;10.73;70.71;97945.63;106195;1274;107634;-72
2022/01/03 11:31:50;;;;;;;9.50;3.10;;;;;;;10.72;69.27;97938.71;106235;1274;97829;-71
2022/01/03 11:34:25;;;;;;;9.70;2.70;;;;;;;10.68;69.56;97948.65;106113;1274;97909;-72
2022/01/03 11:37:00;;;;;;;11.10;3.00;;;;;;;10.60;68.71;97941.01;106153;1274;111454;-72
2022/01/03 11:39:34;;;;;;;10.50;2.90;;;;;;;10.52;68.87;97942.75;106151;1274;96582;-72
2022/01/03 11:42:03;;;;;;;11.20;3.30;;;;;;;10.46;68.39;97929.89;106095;1274;107604;-72
2022/01/03 11:44:33;;;;;;;7.00;2.70;;;;;;;10.52;69.78;97930.20;106060;1274;97941;-73
2022/01/03 11:47:04;;;;;;;7.90;2.70;;;;;;;10.63;68.55;97926.15;106152;1274;97915;-73
2022/01/03 11:49:34;;;;;;;8.80;3.40;;;;;;;10.67;68.90;97923.30;106170;1273;111373;-72
2022/01/03 11:52:09;;;;;;;10.20;2.90;;;;;;;10.66;67.54;97920.58;106194;1274;97937;-72